sensor_id;sensor_type;location;lat;lon;timestamp;temperature;humidity
25991;DHT22;13779;-33.886;151.198;2022-11-20T00:00:35;24.40;73.80
25991;DHT22;13779;-33.886;151.198;2022-11-20T00:03:05;24.30;74.90
25991;DHT22;13779;-33.886;151.198;2022-11-20T00:05:35;24.30;74.60
25991;DHT22;13779;-33.886;151.198;2022-11-20T00:08:06;24.40;74.80
25991;DHT22;13779;-33.886;151.198;2022-11-20T00:10:40;24.50;73.60
25991;DHT22;13779;-33.886;151.198;2022-11-20T00:13:13;24.40;74.60
25991;DHT22;13779;-33.886;151.198;2022-11-20T00:15:43;24.40;74.40
25991;DHT22;13779;-33.886;151.198;2022-11-20T00:18:13;24.50;75.40
25991;DHT22;13779;-33.886;151.198;2022-11-20T00:20:43;24.60;74.90
25991;DHT22;13779;-33.886;151.198;2022-11-20T00:23:14;24.70;72.80
25991;DHT22;13779;-33.886;151.198;2022-11-20T00:25:44;24.70;73.10
25991;DHT22;13779;-33.886;151.198;2022-11-20T00:28:16;24.70;73.30
25991;DHT22;13779;-33.886;151.198;2022-11-20T00:30:46;24.60;74.50
25991;DHT22;13779;-33.886;151.198;2022-11-20T00:33:17;24.50;74.40
25991;DHT22;13779;-33.886;151.198;2022-11-20T00:35:47;24.50;76.20
25991;DHT22;13779;-33.886;151.198;2022-11-20T00:38:17;24.60;73.00
25991;DHT22;13779;-33.886;151.198;2022-11-20T00:40:53;24.70;72.60
25991;DHT22;13779;-33.886;151.198;2022-11-20T00:43:24;24.70;70.40
25991;DHT22;13779;-33.886;151.198;2022-11-20T00:46:05;24.60;70.20
25991;DHT22;13779;-33.886;151.198;2022-11-20T00:48:35;24.70;71.00
25991;DHT22;13779;-33.886;151.198;2022-11-20T00:51:06;24.80;71.20
25991;DHT22;13779;-33.886;151.198;2022-11-20T00:53:36;24.80;69.60
25991;DHT22;13779;-33.886;151.198;2022-11-20T00:56:09;24.70;69.50
25991;DHT22;13779;-33.886;151.198;2022-11-20T00:58:42;24.70;68.20
25991;DHT22;13779;-33.886;151.198;2022-11-20T01:01:14;24.70;68.80
25991;DHT22;13779;-33.886;151.198;2022-11-20T01:03:47;24.60;69.60
25991;DHT22;13779;-33.886;151.198;2022-11-20T01:06:37;24.70;70.20
25991;DHT22;13779;-33.886;151.198;2022-11-20T01:09:13;24.70;70.60
25991;DHT22;13779;-33.886;151.198;2022-11-20T01:11:45;24.70;71.30
25991;DHT22;13779;-33.886;151.198;2022-11-20T01:14:18;24.80;69.20
25991;DHT22;13779;-33.886;151.198;2022-11-20T01:16:50;24.80;68.10
25991;DHT22;13779;-33.886;151.198;2022-11-20T01:19:22;24.90;68.20
25991;DHT22;13779;-33.886;151.198;2022-11-20T01:21:54;25.10;68.50
25991;DHT22;13779;-33.886;151.198;2022-11-20T01:24:26;25.10;68.90
25991;DHT22;13779;-33.886;151.198;2022-11-20T01:26:56;25.10;69.10
25991;DHT22;13779;-33.886;151.198;2022-11-20T01:29:27;25.00;69.30
25991;DHT22;13779;-33.886;151.198;2022-11-20T01:31:57;25.00;68.40
25991;DHT22;13779;-33.886;151.198;2022-11-20T01:34:28;24.90;67.50
25991;DHT22;13779;-33.886;151.198;2022-11-20T01:36:59;24.80;68.20
25991;DHT22;13779;-33.886;151.198;2022-11-20T01:39:30;24.80;65.50
25991;DHT22;13779;-33.886;151.198;2022-11-20T01:42:00;24.80;66.60
25991;DHT22;13779;-33.886;151.198;2022-11-20T01:44:59;25.10;67.80
25991;DHT22;13779;-33.886;151.198;2022-11-20T01:50:13;25.20;68.40
25991;DHT22;13779;-33.886;151.198;2022-11-20T01:52:56;25.10;68.90
25991;DHT22;13779;-33.886;151.198;2022-11-20T01:55:30;25.10;69.70
25991;DHT22;13779;-33.886;151.198;2022-11-20T01:58:02;25.10;67.00
25991;DHT22;13779;-33.886;151.198;2022-11-20T02:00:35;25.00;66.70
25991;DHT22;13779;-33.886;151.198;2022-11-20T02:03:11;25.10;66.40
25991;DHT22;13779;-33.886;151.198;2022-11-20T02:08:35;25.40;67.90
25991;DHT22;13779;-33.886;151.198;2022-11-20T02:11:07;25.40;66.60
25991;DHT22;13779;-33.886;151.198;2022-11-20T02:13:40;25.40;66.40
25991;DHT22;13779;-33.886;151.198;2022-11-20T02:16:25;25.40;66.70
25991;DHT22;13779;-33.886;151.198;2022-11-20T02:18:57;25.30;65.90
25991;DHT22;13779;-33.886;151.198;2022-11-20T02:21:37;25.30;66.00
25991;DHT22;13779;-33.886;151.198;2022-11-20T02:24:13;25.30;67.30
25991;DHT22;13779;-33.886;151.198;2022-11-20T02:29:40;25.30;67.50
25991;DHT22;13779;-33.886;151.198;2022-11-20T02:32:32;25.30;68.00
25991;DHT22;13779;-33.886;151.198;2022-11-20T02:37:55;25.50;68.20
25991;DHT22;13779;-33.886;151.198;2022-11-20T02:40:26;25.50;68.10
25991;DHT22;13779;-33.886;151.198;2022-11-20T02:42:57;25.50;68.30
25991;DHT22;13779;-33.886;151.198;2022-11-20T02:45:28;25.40;68.10
25991;DHT22;13779;-33.886;151.198;2022-11-20T02:47:59;25.10;68.00
25991;DHT22;13779;-33.886;151.198;2022-11-20T02:50:29;24.90;68.10
25991;DHT22;13779;-33.886;151.198;2022-11-20T02:53:00;24.90;68.90
25991;DHT22;13779;-33.886;151.198;2022-11-20T02:55:31;25.00;69.80
25991;DHT22;13779;-33.886;151.198;2022-11-20T02:58:01;25.20;70.50
25991;DHT22;13779;-33.886;151.198;2022-11-20T03:00:31;25.30;70.50
25991;DHT22;13779;-33.886;151.198;2022-11-20T03:03:02;25.20;70.10
25991;DHT22;13779;-33.886;151.198;2022-11-20T03:05:32;25.20;71.20
25991;DHT22;13779;-33.886;151.198;2022-11-20T03:08:03;25.20;71.80
25991;DHT22;13779;-33.886;151.198;2022-11-20T03:10:34;25.20;72.40
25991;DHT22;13779;-33.886;151.198;2022-11-20T03:13:05;25.20;73.40
25991;DHT22;13779;-33.886;151.198;2022-11-20T03:15:39;25.20;73.60
25991;DHT22;13779;-33.886;151.198;2022-11-20T03:18:09;25.40;72.80
25991;DHT22;13779;-33.886;151.198;2022-11-20T03:20:40;25.40;72.60
25991;DHT22;13779;-33.886;151.198;2022-11-20T03:23:11;25.20;70.70
25991;DHT22;13779;-33.886;151.198;2022-11-20T03:25:42;25.10;72.50
25991;DHT22;13779;-33.886;151.198;2022-11-20T03:28:16;25.20;72.00
25991;DHT22;13779;-33.886;151.198;2022-11-20T03:30:47;25.20;71.20
25991;DHT22;13779;-33.886;151.198;2022-11-20T03:33:18;25.40;71.60
25991;DHT22;13779;-33.886;151.198;2022-11-20T03:35:48;25.60;72.20
25991;DHT22;13779;-33.886;151.198;2022-11-20T03:38:19;25.60;71.60
25991;DHT22;13779;-33.886;151.198;2022-11-20T03:40:49;25.40;71.50
25991;DHT22;13779;-33.886;151.198;2022-11-20T03:43:20;25.20;72.40
25991;DHT22;13779;-33.886;151.198;2022-11-20T03:45:50;25.20;72.10
25991;DHT22;13779;-33.886;151.198;2022-11-20T03:48:21;25.00;71.30
25991;DHT22;13779;-33.886;151.198;2022-11-20T03:50:53;25.10;72.40
25991;DHT22;13779;-33.886;151.198;2022-11-20T03:53:24;25.10;71.40
25991;DHT22;13779;-33.886;151.198;2022-11-20T03:55:54;25.10;70.00
25991;DHT22;13779;-33.886;151.198;2022-11-20T03:58:26;25.20;70.20
25991;DHT22;13779;-33.886;151.198;2022-11-20T04:00:56;25.20;71.50
25991;DHT22;13779;-33.886;151.198;2022-11-20T04:03:27;25.40;71.90
25991;DHT22;13779;-33.886;151.198;2022-11-20T04:06:09;25.40;72.00
25991;DHT22;13779;-33.886;151.198;2022-11-20T04:08:41;25.30;71.10
25991;DHT22;13779;-33.886;151.198;2022-11-20T04:11:26;25.30;71.20
25991;DHT22;13779;-33.886;151.198;2022-11-20T04:13:59;25.40;71.70
25991;DHT22;13779;-33.886;151.198;2022-11-20T04:16:32;25.30;70.80
25991;DHT22;13779;-33.886;151.198;2022-11-20T04:19:05;25.20;70.40
25991;DHT22;13779;-33.886;151.198;2022-11-20T04:21:35;25.10;69.70
25991;DHT22;13779;-33.886;151.198;2022-11-20T04:24:07;25.20;69.20
25991;DHT22;13779;-33.886;151.198;2022-11-20T04:26:38;25.10;69.80
25991;DHT22;13779;-33.886;151.198;2022-11-20T04:29:11;25.30;70.60
25991;DHT22;13779;-33.886;151.198;2022-11-20T04:31:41;25.30;69.80
25991;DHT22;13779;-33.886;151.198;2022-11-20T04:34:12;25.40;70.00
25991;DHT22;13779;-33.886;151.198;2022-11-20T04:36:46;25.30;69.90
25991;DHT22;13779;-33.886;151.198;2022-11-20T04:39:17;25.30;69.90
25991;DHT22;13779;-33.886;151.198;2022-11-20T04:41:47;25.30;70.10
25991;DHT22;13779;-33.886;151.198;2022-11-20T04:44:17;25.40;68.50
25991;DHT22;13779;-33.886;151.198;2022-11-20T04:46:47;25.40;66.60
25991;DHT22;13779;-33.886;151.198;2022-11-20T04:49:17;25.40;66.10
25991;DHT22;13779;-33.886;151.198;2022-11-20T04:51:48;25.40;66.90
25991;DHT22;13779;-33.886;151.198;2022-11-20T04:54:21;25.40;66.80
25991;DHT22;13779;-33.886;151.198;2022-11-20T04:56:51;25.30;66.90
25991;DHT22;13779;-33.886;151.198;2022-11-20T04:59:22;25.20;61.40
25991;DHT22;13779;-33.886;151.198;2022-11-20T05:01:52;25.10;58.70
25991;DHT22;13779;-33.886;151.198;2022-11-20T05:04:22;25.20;60.10
25991;DHT22;13779;-33.886;151.198;2022-11-20T05:06:52;25.30;63.30
25991;DHT22;13779;-33.886;151.198;2022-11-20T05:09:22;25.30;65.80
25991;DHT22;13779;-33.886;151.198;2022-11-20T05:11:52;25.30;64.40
25991;DHT22;13779;-33.886;151.198;2022-11-20T05:14:22;25.10;64.80
25991;DHT22;13779;-33.886;151.198;2022-11-20T05:16:52;25.10;64.00
25991;DHT22;13779;-33.886;151.198;2022-11-20T05:19:22;25.10;61.50
25991;DHT22;13779;-33.886;151.198;2022-11-20T05:21:53;25.10;61.80
25991;DHT22;13779;-33.886;151.198;2022-11-20T05:24:23;25.10;61.00
25991;DHT22;13779;-33.886;151.198;2022-11-20T05:26:53;25.00;60.70
25991;DHT22;13779;-33.886;151.198;2022-11-20T05:29:24;25.00;61.60
25991;DHT22;13779;-33.886;151.198;2022-11-20T05:31:55;25.00;61.00
25991;DHT22;13779;-33.886;151.198;2022-11-20T05:34:25;24.90;59.90
25991;DHT22;13779;-33.886;151.198;2022-11-20T05:36:56;25.00;59.90
25991;DHT22;13779;-33.886;151.198;2022-11-20T05:39:26;25.00;59.80
25991;DHT22;13779;-33.886;151.198;2022-11-20T05:41:57;25.00;59.30
25991;DHT22;13779;-33.886;151.198;2022-11-20T05:44:45;25.00;58.60
25991;DHT22;13779;-33.886;151.198;2022-11-20T05:47:16;25.00;59.90
25991;DHT22;13779;-33.886;151.198;2022-11-20T05:49:46;25.00;60.10
25991;DHT22;13779;-33.886;151.198;2022-11-20T05:52:17;24.90;59.30
25991;DHT22;13779;-33.886;151.198;2022-11-20T05:54:47;24.90;59.70
25991;DHT22;13779;-33.886;151.198;2022-11-20T05:57:18;24.80;60.10
25991;DHT22;13779;-33.886;151.198;2022-11-20T05:59:48;24.80;60.30
25991;DHT22;13779;-33.886;151.198;2022-11-20T06:02:19;24.80;60.70
25991;DHT22;13779;-33.886;151.198;2022-11-20T06:04:50;24.90;59.70
25991;DHT22;13779;-33.886;151.198;2022-11-20T06:07:20;24.90;59.50
25991;DHT22;13779;-33.886;151.198;2022-11-20T06:09:51;24.90;58.00
25991;DHT22;13779;-33.886;151.198;2022-11-20T06:12:21;24.90;58.50
25991;DHT22;13779;-33.886;151.198;2022-11-20T06:14:52;24.90;58.10
25991;DHT22;13779;-33.886;151.198;2022-11-20T06:17:23;24.80;58.30
25991;DHT22;13779;-33.886;151.198;2022-11-20T06:19:53;24.80;58.00
25991;DHT22;13779;-33.886;151.198;2022-11-20T06:22:24;24.80;57.50
25991;DHT22;13779;-33.886;151.198;2022-11-20T06:24:54;24.80;57.10
25991;DHT22;13779;-33.886;151.198;2022-11-20T06:27:24;24.80;57.50
25991;DHT22;13779;-33.886;151.198;2022-11-20T06:29:54;24.80;56.80
25991;DHT22;13779;-33.886;151.198;2022-11-20T06:32:24;24.80;57.50
25991;DHT22;13779;-33.886;151.198;2022-11-20T06:34:54;24.80;57.60
25991;DHT22;13779;-33.886;151.198;2022-11-20T06:37:24;24.80;57.60
25991;DHT22;13779;-33.886;151.198;2022-11-20T06:39:54;24.70;57.60
25991;DHT22;13779;-33.886;151.198;2022-11-20T06:42:24;24.60;57.40
25991;DHT22;13779;-33.886;151.198;2022-11-20T06:44:54;24.60;57.60
25991;DHT22;13779;-33.886;151.198;2022-11-20T06:47:24;24.60;57.80
25991;DHT22;13779;-33.886;151.198;2022-11-20T06:49:55;24.50;57.60
25991;DHT22;13779;-33.886;151.198;2022-11-20T06:52:25;24.50;57.60
25991;DHT22;13779;-33.886;151.198;2022-11-20T06:54:55;24.50;57.70
25991;DHT22;13779;-33.886;151.198;2022-11-20T06:57:25;24.50;56.50
25991;DHT22;13779;-33.886;151.198;2022-11-20T06:59:56;24.50;56.90
25991;DHT22;13779;-33.886;151.198;2022-11-20T07:02:25;24.40;57.60
25991;DHT22;13779;-33.886;151.198;2022-11-20T07:04:55;24.50;58.40
25991;DHT22;13779;-33.886;151.198;2022-11-20T07:07:26;24.40;58.50
25991;DHT22;13779;-33.886;151.198;2022-11-20T07:09:56;24.40;59.20
25991;DHT22;13779;-33.886;151.198;2022-11-20T07:12:26;24.40;59.50
25991;DHT22;13779;-33.886;151.198;2022-11-20T07:14:56;24.40;59.30
25991;DHT22;13779;-33.886;151.198;2022-11-20T07:17:27;24.40;59.40
25991;DHT22;13779;-33.886;151.198;2022-11-20T07:19:57;24.40;58.80
25991;DHT22;13779;-33.886;151.198;2022-11-20T07:22:27;24.30;58.80
25991;DHT22;13779;-33.886;151.198;2022-11-20T07:24:57;24.30;57.30
25991;DHT22;13779;-33.886;151.198;2022-11-20T07:27:27;24.30;57.60
25991;DHT22;13779;-33.886;151.198;2022-11-20T07:29:57;24.30;57.70
25991;DHT22;13779;-33.886;151.198;2022-11-20T07:32:27;24.20;58.10
25991;DHT22;13779;-33.886;151.198;2022-11-20T07:34:57;24.10;58.50
25991;DHT22;13779;-33.886;151.198;2022-11-20T07:37:28;24.10;58.60
25991;DHT22;13779;-33.886;151.198;2022-11-20T07:39:58;24.10;58.70
25991;DHT22;13779;-33.886;151.198;2022-11-20T07:42:28;24.10;59.20
25991;DHT22;13779;-33.886;151.198;2022-11-20T07:44:58;24.10;59.50
25991;DHT22;13779;-33.886;151.198;2022-11-20T07:47:28;24.00;59.30
25991;DHT22;13779;-33.886;151.198;2022-11-20T07:49:58;23.90;59.60
25991;DHT22;13779;-33.886;151.198;2022-11-20T07:52:29;23.90;59.50
25991;DHT22;13779;-33.886;151.198;2022-11-20T07:54:59;23.80;59.60
25991;DHT22;13779;-33.886;151.198;2022-11-20T07:57:29;23.80;59.50
25991;DHT22;13779;-33.886;151.198;2022-11-20T08:00:00;23.80;59.90
25991;DHT22;13779;-33.886;151.198;2022-11-20T08:02:30;23.70;60.10
25991;DHT22;13779;-33.886;151.198;2022-11-20T08:05:00;23.70;60.70
25991;DHT22;13779;-33.886;151.198;2022-11-20T08:07:35;23.60;61.10
25991;DHT22;13779;-33.886;151.198;2022-11-20T08:10:06;23.50;61.50
25991;DHT22;13779;-33.886;151.198;2022-11-20T08:12:40;23.50;62.00
25991;DHT22;13779;-33.886;151.198;2022-11-20T08:15:31;23.50;62.30
25991;DHT22;13779;-33.886;151.198;2022-11-20T08:18:07;23.50;62.60
25991;DHT22;13779;-33.886;151.198;2022-11-20T08:20:57;23.50;63.10
25991;DHT22;13779;-33.886;151.198;2022-11-20T08:23:27;23.40;63.40
25991;DHT22;13779;-33.886;151.198;2022-11-20T08:25:57;23.30;63.70
25991;DHT22;13779;-33.886;151.198;2022-11-20T08:28:27;23.30;63.70
25991;DHT22;13779;-33.886;151.198;2022-11-20T08:31:01;23.30;64.00
25991;DHT22;13779;-33.886;151.198;2022-11-20T08:33:33;23.20;64.60
25991;DHT22;13779;-33.886;151.198;2022-11-20T08:36:04;23.20;65.20
25991;DHT22;13779;-33.886;151.198;2022-11-20T08:38:35;23.20;65.40
25991;DHT22;13779;-33.886;151.198;2022-11-20T08:41:05;23.10;65.60
25991;DHT22;13779;-33.886;151.198;2022-11-20T08:43:57;23.10;65.60
25991;DHT22;13779;-33.886;151.198;2022-11-20T08:46:32;23.00;65.60
25991;DHT22;13779;-33.886;151.198;2022-11-20T08:49:04;23.00;65.50
25991;DHT22;13779;-33.886;151.198;2022-11-20T08:51:35;23.00;65.60
25991;DHT22;13779;-33.886;151.198;2022-11-20T08:54:06;23.00;65.90
25991;DHT22;13779;-33.886;151.198;2022-11-20T08:56:37;22.90;66.00
25991;DHT22;13779;-33.886;151.198;2022-11-20T08:59:07;22.80;66.30
25991;DHT22;13779;-33.886;151.198;2022-11-20T09:01:53;22.80;66.20
25991;DHT22;13779;-33.886;151.198;2022-11-20T09:04:24;22.80;65.30
25991;DHT22;13779;-33.886;151.198;2022-11-20T09:06:57;22.80;65.30
25991;DHT22;13779;-33.886;151.198;2022-11-20T09:09:29;22.80;65.20
25991;DHT22;13779;-33.886;151.198;2022-11-20T09:12:00;22.70;64.70
25991;DHT22;13779;-33.886;151.198;2022-11-20T09:14:30;22.70;64.20
25991;DHT22;13779;-33.886;151.198;2022-11-20T09:17:00;22.60;64.10
25991;DHT22;13779;-33.886;151.198;2022-11-20T09:19:30;22.60;64.30
25991;DHT22;13779;-33.886;151.198;2022-11-20T09:22:02;22.50;64.00
25991;DHT22;13779;-33.886;151.198;2022-11-20T09:24:35;22.50;64.00
25991;DHT22;13779;-33.886;151.198;2022-11-20T09:27:06;22.50;63.80
25991;DHT22;13779;-33.886;151.198;2022-11-20T09:29:36;22.50;63.90
25991;DHT22;13779;-33.886;151.198;2022-11-20T09:32:06;22.50;64.00
25991;DHT22;13779;-33.886;151.198;2022-11-20T09:34:39;22.50;64.00
25991;DHT22;13779;-33.886;151.198;2022-11-20T09:37:09;22.50;64.30
25991;DHT22;13779;-33.886;151.198;2022-11-20T09:39:39;22.40;64.00
25991;DHT22;13779;-33.886;151.198;2022-11-20T09:50:40;22.30;64.80
25991;DHT22;13779;-33.886;151.198;2022-11-20T09:56:15;22.20;65.40
25991;DHT22;13779;-33.886;151.198;2022-11-20T09:58:55;22.20;65.50
25991;DHT22;13779;-33.886;151.198;2022-11-20T10:01:30;22.20;65.00
25991;DHT22;13779;-33.886;151.198;2022-11-20T10:04:06;22.20;65.20
25991;DHT22;13779;-33.886;151.198;2022-11-20T10:09:58;22.10;65.20
25991;DHT22;13779;-33.886;151.198;2022-11-20T10:13:02;22.10;64.90
25991;DHT22;13779;-33.886;151.198;2022-11-20T10:16:09;22.10;65.20
25991;DHT22;13779;-33.886;151.198;2022-11-20T10:26:52;22.00;65.00
25991;DHT22;13779;-33.886;151.198;2022-11-20T10:29:33;22.00;65.80
25991;DHT22;13779;-33.886;151.198;2022-11-20T10:32:18;21.90;64.90
25991;DHT22;13779;-33.886;151.198;2022-11-20T10:35:06;21.90;65.40
25991;DHT22;13779;-33.886;151.198;2022-11-20T10:37:42;21.80;65.30
25991;DHT22;13779;-33.886;151.198;2022-11-20T10:40:27;21.80;65.00
25991;DHT22;13779;-33.886;151.198;2022-11-20T10:43:21;21.80;65.60
25991;DHT22;13779;-33.886;151.198;2022-11-20T10:45:58;21.80;65.50
25991;DHT22;13779;-33.886;151.198;2022-11-20T10:48:32;21.80;65.50
25991;DHT22;13779;-33.886;151.198;2022-11-20T10:54:17;21.80;66.30
25991;DHT22;13779;-33.886;151.198;2022-11-20T10:56:53;21.70;66.70
25991;DHT22;13779;-33.886;151.198;2022-11-20T11:02:23;21.70;68.10
25991;DHT22;13779;-33.886;151.198;2022-11-20T11:04:54;21.70;68.30
25991;DHT22;13779;-33.886;151.198;2022-11-20T11:07:25;21.70;68.90
25991;DHT22;13779;-33.886;151.198;2022-11-20T11:09:58;21.60;69.10
25991;DHT22;13779;-33.886;151.198;2022-11-20T11:12:32;21.50;69.50
25991;DHT22;13779;-33.886;151.198;2022-11-20T11:15:03;21.50;69.80
25991;DHT22;13779;-33.886;151.198;2022-11-20T11:17:35;21.50;69.70
25991;DHT22;13779;-33.886;151.198;2022-11-20T11:20:16;21.50;69.70
25991;DHT22;13779;-33.886;151.198;2022-11-20T11:25:32;21.40;70.10
25991;DHT22;13779;-33.886;151.198;2022-11-20T11:30:49;21.50;70.40
25991;DHT22;13779;-33.886;151.198;2022-11-20T11:33:28;21.40;70.40
25991;DHT22;13779;-33.886;151.198;2022-11-20T11:36:04;21.40;70.80
25991;DHT22;13779;-33.886;151.198;2022-11-20T11:38:45;21.30;71.00
25991;DHT22;13779;-33.886;151.198;2022-11-20T11:41:20;21.30;71.30
25991;DHT22;13779;-33.886;151.198;2022-11-20T11:43:56;21.40;71.40
25991;DHT22;13779;-33.886;151.198;2022-11-20T11:46:56;21.30;71.70
25991;DHT22;13779;-33.886;151.198;2022-11-20T11:49:27;21.30;72.00
25991;DHT22;13779;-33.886;151.198;2022-11-20T11:52:17;21.30;72.20
25991;DHT22;13779;-33.886;151.198;2022-11-20T11:55:00;21.30;72.40
25991;DHT22;13779;-33.886;151.198;2022-11-20T12:00:33;21.30;72.60
25991;DHT22;13779;-33.886;151.198;2022-11-20T12:03:39;21.20;73.40
25991;DHT22;13779;-33.886;151.198;2022-11-20T12:06:17;21.10;74.30
25991;DHT22;13779;-33.886;151.198;2022-11-20T12:11:29;21.00;76.60
25991;DHT22;13779;-33.886;151.198;2022-11-20T12:16:41;20.90;77.40
25991;DHT22;13779;-33.886;151.198;2022-11-20T12:19:13;20.90;78.10
25991;DHT22;13779;-33.886;151.198;2022-11-20T12:21:49;20.80;78.90
25991;DHT22;13779;-33.886;151.198;2022-11-20T12:24:37;20.80;78.90
25991;DHT22;13779;-33.886;151.198;2022-11-20T12:30:20;20.70;79.40
25991;DHT22;13779;-33.886;151.198;2022-11-20T13:08:36;20.30;83.90
25991;DHT22;13779;-33.886;151.198;2022-11-20T13:19:16;20.30;82.70
25991;DHT22;13779;-33.886;151.198;2022-11-20T13:21:49;20.30;83.30
25991;DHT22;13779;-33.886;151.198;2022-11-20T13:29:46;20.20;85.00
25991;DHT22;13779;-33.886;151.198;2022-11-20T13:32:21;20.20;85.50
25991;DHT22;13779;-33.886;151.198;2022-11-20T13:34:54;20.10;86.00
25991;DHT22;13779;-33.886;151.198;2022-11-20T13:43:26;20.00;87.10
25991;DHT22;13779;-33.886;151.198;2022-11-20T13:45:37;20.00;87.50
25991;DHT22;13779;-33.886;151.198;2022-11-20T13:48:41;19.90;87.70
25991;DHT22;13779;-33.886;151.198;2022-11-20T14:00:21;19.90;88.30
25991;DHT22;13779;-33.886;151.198;2022-11-20T14:03:17;19.90;88.30
25991;DHT22;13779;-33.886;151.198;2022-11-20T14:06:28;19.90;87.70
25991;DHT22;13779;-33.886;151.198;2022-11-20T14:09:01;19.90;86.60
25991;DHT22;13779;-33.886;151.198;2022-11-20T14:11:32;20.00;85.50
25991;DHT22;13779;-33.886;151.198;2022-11-20T14:14:15;20.00;87.20
25991;DHT22;13779;-33.886;151.198;2022-11-20T14:16:47;20.00;86.90
25991;DHT22;13779;-33.886;151.198;2022-11-20T14:22:06;20.10;86.80
25991;DHT22;13779;-33.886;151.198;2022-11-20T14:24:37;20.10;87.10
25991;DHT22;13779;-33.886;151.198;2022-11-20T14:27:14;20.00;87.50
25991;DHT22;13779;-33.886;151.198;2022-11-20T14:29:46;20.10;87.00
25991;DHT22;13779;-33.886;151.198;2022-11-20T14:32:23;20.00;86.80
25991;DHT22;13779;-33.886;151.198;2022-11-20T14:35:01;20.00;86.30
25991;DHT22;13779;-33.886;151.198;2022-11-20T14:37:36;20.10;86.20
25991;DHT22;13779;-33.886;151.198;2022-11-20T14:42:52;20.10;85.10
25991;DHT22;13779;-33.886;151.198;2022-11-20T14:45:23;20.10;85.20
25991;DHT22;13779;-33.886;151.198;2022-11-20T14:47:58;20.00;85.20
25991;DHT22;13779;-33.886;151.198;2022-11-20T14:50:30;20.10;85.20
25991;DHT22;13779;-33.886;151.198;2022-11-20T14:53:02;20.10;85.00
25991;DHT22;13779;-33.886;151.198;2022-11-20T14:55:37;20.00;84.90
25991;DHT22;13779;-33.886;151.198;2022-11-20T14:58:21;20.00;84.30
25991;DHT22;13779;-33.886;151.198;2022-11-20T15:01:03;20.10;83.70
25991;DHT22;13779;-33.886;151.198;2022-11-20T15:03:35;20.00;83.10
25991;DHT22;13779;-33.886;151.198;2022-11-20T15:06:09;20.00;83.30
25991;DHT22;13779;-33.886;151.198;2022-11-20T15:08:51;20.00;83.30
25991;DHT22;13779;-33.886;151.198;2022-11-20T15:11:32;20.00;83.60
25991;DHT22;13779;-33.886;151.198;2022-11-20T15:14:05;20.00;83.70
25991;DHT22;13779;-33.886;151.198;2022-11-20T15:16:37;20.00;84.50
25991;DHT22;13779;-33.886;151.198;2022-11-20T15:19:18;20.00;84.80
25991;DHT22;13779;-33.886;151.198;2022-11-20T15:21:50;20.10;84.90
25991;DHT22;13779;-33.886;151.198;2022-11-20T15:24:21;20.00;84.80
25991;DHT22;13779;-33.886;151.198;2022-11-20T15:26:51;20.00;84.40
25991;DHT22;13779;-33.886;151.198;2022-11-20T15:29:24;20.00;84.40
25991;DHT22;13779;-33.886;151.198;2022-11-20T15:31:54;20.00;84.20
25991;DHT22;13779;-33.886;151.198;2022-11-20T15:34:27;20.00;84.40
25991;DHT22;13779;-33.886;151.198;2022-11-20T15:36:58;20.00;84.80
25991;DHT22;13779;-33.886;151.198;2022-11-20T15:39:28;20.00;84.90
25991;DHT22;13779;-33.886;151.198;2022-11-20T15:41:59;20.00;85.00
25991;DHT22;13779;-33.886;151.198;2022-11-20T15:44:29;20.00;85.20
25991;DHT22;13779;-33.886;151.198;2022-11-20T15:47:00;20.00;85.70
25991;DHT22;13779;-33.886;151.198;2022-11-20T15:49:30;20.00;85.20
25991;DHT22;13779;-33.886;151.198;2022-11-20T15:52:01;20.00;86.50
25991;DHT22;13779;-33.886;151.198;2022-11-20T15:54:32;20.00;86.10
25991;DHT22;13779;-33.886;151.198;2022-11-20T15:57:02;20.00;86.50
25991;DHT22;13779;-33.886;151.198;2022-11-20T15:59:33;20.10;86.60
25991;DHT22;13779;-33.886;151.198;2022-11-20T16:02:13;20.10;87.20
25991;DHT22;13779;-33.886;151.198;2022-11-20T16:04:46;20.00;87.80
25991;DHT22;13779;-33.886;151.198;2022-11-20T16:07:16;19.90;88.40
25991;DHT22;13779;-33.886;151.198;2022-11-20T16:09:47;19.80;88.60
25991;DHT22;13779;-33.886;151.198;2022-11-20T16:12:17;19.80;88.90
25991;DHT22;13779;-33.886;151.198;2022-11-20T16:15:08;19.80;88.80
25991;DHT22;13779;-33.886;151.198;2022-11-20T16:17:57;19.90;88.40
25991;DHT22;13779;-33.886;151.198;2022-11-20T16:20:27;19.80;90.00
25991;DHT22;13779;-33.886;151.198;2022-11-20T16:22:58;19.80;90.00
25991;DHT22;13779;-33.886;151.198;2022-11-20T16:25:29;19.80;89.70
25991;DHT22;13779;-33.886;151.198;2022-11-20T16:28:00;19.80;88.90
25991;DHT22;13779;-33.886;151.198;2022-11-20T16:30:32;19.80;88.40
25991;DHT22;13779;-33.886;151.198;2022-11-20T16:33:03;19.90;88.10
25991;DHT22;13779;-33.886;151.198;2022-11-20T16:35:33;19.90;87.30
25991;DHT22;13779;-33.886;151.198;2022-11-20T16:38:04;19.90;87.10
25991;DHT22;13779;-33.886;151.198;2022-11-20T16:40:35;19.90;87.40
25991;DHT22;13779;-33.886;151.198;2022-11-20T16:43:13;19.90;87.30
25991;DHT22;13779;-33.886;151.198;2022-11-20T16:45:44;19.90;87.20
25991;DHT22;13779;-33.886;151.198;2022-11-20T16:48:15;19.90;87.30
25991;DHT22;13779;-33.886;151.198;2022-11-20T16:50:46;19.90;87.50
25991;DHT22;13779;-33.886;151.198;2022-11-20T16:53:19;19.90;87.90
25991;DHT22;13779;-33.886;151.198;2022-11-20T16:55:50;20.00;88.10
25991;DHT22;13779;-33.886;151.198;2022-11-20T16:58:20;19.90;88.40
25991;DHT22;13779;-33.886;151.198;2022-11-20T17:00:51;19.80;88.20
25991;DHT22;13779;-33.886;151.198;2022-11-20T17:03:21;19.90;88.60
25991;DHT22;13779;-33.886;151.198;2022-11-20T17:05:52;19.90;88.60
25991;DHT22;13779;-33.886;151.198;2022-11-20T17:08:22;19.90;88.30
25991;DHT22;13779;-33.886;151.198;2022-11-20T17:10:53;19.90;87.80
25991;DHT22;13779;-33.886;151.198;2022-11-20T17:13:23;19.90;88.10
25991;DHT22;13779;-33.886;151.198;2022-11-20T17:15:54;19.90;88.60
25991;DHT22;13779;-33.886;151.198;2022-11-20T17:18:30;19.90;88.40
25991;DHT22;13779;-33.886;151.198;2022-11-20T17:21:01;19.90;88.80
25991;DHT22;13779;-33.886;151.198;2022-11-20T17:23:39;19.90;88.70
25991;DHT22;13779;-33.886;151.198;2022-11-20T17:26:17;19.90;89.30
25991;DHT22;13779;-33.886;151.198;2022-11-20T17:29:00;19.80;88.90
25991;DHT22;13779;-33.886;151.198;2022-11-20T17:31:32;19.80;89.00